Time;durP1;ratioP1;P1;durP2;ratioP2;P2;SDS_P1;SDS_P2;PMS_P1;PMS_P2;Temp;Humidity;BMP_temperature;BMP_pressure;BME280_temperature;BME280_humidity;BME280_pressure;Samples;Min_cycle;Max_cycle;Signal;HPM_P1;HPM_P2
2022/08/16 00:00:11;;;;;;;6.70;3.93;;;;;;;25.31;56.73;99555.50;5092358;28;20409;-63
2022/08/16 00:02:36;;;;;;;5.40;3.50;;;;;;;25.33;56.48;99558.75;5070157;28;20183;-63
2022/08/16 00:05:03;;;;;;;6.63;3.93;;;;;;;25.34;56.36;99560.38;5070973;28;20968;-63
2022/08/16 00:07:28;;;;;;;6.57;4.37;;;;;;;25.33;56.66;99552.97;5071693;28;20186;-63
2022/08/16 00:09:54;;;;;;;7.20;3.57;;;;;;;25.33;56.73;99549.28;5071717;28;20792;-63
2022/08/16 00:12:19;;;;;;;5.83;4.30;;;;;;;25.33;56.33;99552.97;5071164;28;20590;-63
2022/08/16 00:14:45;;;;;;;7.03;3.93;;;;;;;25.33;56.58;99555.06;5070163;28;20704;-63
2022/08/16 00:17:10;;;;;;;6.40;4.00;;;;;;;25.31;56.59;99561.28;5071413;28;20177;-63
2022/08/16 00:19:35;;;;;;;7.77;3.83;;;;;;;25.32;56.58;99556.28;5071296;28;20191;-63
2022/08/16 00:22:01;;;;;;;5.40;3.63;;;;;;;25.32;56.46;99565.78;5071411;28;20174;-63
2022/08/16 00:24:27;;;;;;;7.17;3.70;;;;;;;25.32;56.74;99557.13;5071328;28;20187;-63
2022/08/16 00:26:52;;;;;;;9.60;4.03;;;;;;;25.32;56.53;99560.00;5073907;28;20178;-63
2022/08/16 00:29:18;;;;;;;9.57;3.83;;;;;;;25.33;56.29;99560.84;5069964;28;20566;-63
2022/08/16 00:31:45;;;;;;;6.37;4.10;;;;;;;25.34;56.15;99556.69;5075798;28;20209;-63
2022/08/16 00:34:10;;;;;;;5.90;3.93;;;;;;;25.33;56.15;99552.16;5091462;28;20178;-64
2022/08/16 00:36:36;;;;;;;5.93;3.87;;;;;;;25.33;56.50;99547.19;5091360;28;20428;-64
2022/08/16 00:39:01;;;;;;;4.60;3.73;;;;;;;25.33;56.01;99549.28;5088560;28;20193;-64
2022/08/16 00:41:27;;;;;;;9.93;3.87;;;;;;;25.33;56.58;99547.19;5091104;28;20538;-64
2022/08/16 00:43:52;;;;;;;8.03;3.40;;;;;;;25.33;56.48;99547.19;5089878;28;20175;-64
2022/08/16 00:46:19;;;;;;;6.53;4.17;;;;;;;25.34;56.54;99548.00;5091182;28;20182;-64
2022/08/16 00:48:44;;;;;;;6.43;3.77;;;;;;;25.33;56.39;99552.97;5091309;28;20265;-64
2022/08/16 00:51:11;;;;;;;6.53;3.90;;;;;;;25.35;56.10;99556.25;5091205;28;20456;-64
2022/08/16 00:53:37;;;;;;;6.30;3.90;;;;;;;25.33;56.47;99558.75;5091058;28;20184;-64
2022/08/16 00:56:05;;;;;;;5.63;4.23;;;;;;;25.33;56.38;99555.84;5091025;28;20417;-64
2022/08/16 00:58:31;;;;;;;10.60;4.00;;;;;;;25.32;56.32;99556.28;5089759;28;20190;-64
2022/08/16 01:00:56;;;;;;;5.67;3.80;;;;;;;25.33;56.68;99560.84;5090052;28;20413;-64
2022/08/16 01:03:23;;;;;;;5.70;4.00;;;;;;;25.32;56.45;99559.19;5090790;28;20248;-64
2022/08/16 01:05:49;;;;;;;7.60;4.33;;;;;;;25.32;55.94;99562.06;5089371;28;20186;-64
2022/08/16 01:08:16;;;;;;;8.13;3.73;;;;;;;25.31;56.29;99558.38;5090938;28;20431;-64
2022/08/16 01:10:41;;;;;;;7.13;4.43;;;;;;;25.30;57.01;99553.03;5072254;28;20201;-64
2022/08/16 01:13:11;;;;;;;5.20;3.60;;;;;;;25.29;56.51;99557.22;5089861;28;20416;-64
2022/08/16 01:15:38;;;;;;;5.17;4.00;;;;;;;25.30;56.51;99559.66;5089686;28;20213;-64
2022/08/16 01:18:04;;;;;;;6.10;3.90;;;;;;;25.30;56.43;99564.59;5089352;28;20447;-63
2022/08/16 01:20:32;;;;;;;7.17;4.13;;;;;;;25.31;56.47;99558.38;5089516;28;20751;-63
2022/08/16 01:23:11;;;;;;;8.07;4.20;;;;;;;25.30;56.32;99559.66;5073147;28;20424;-64
2022/08/16 01:25:38;;;;;;;8.60;4.07;;;;;;;25.29;56.54;99560.09;5089013;28;20420;-64
2022/08/16 01:28:07;;;;;;;5.30;3.83;;;;;;;25.30;56.33;99561.72;5089859;28;20420;-64
2022/08/16 01:30:35;;;;;;;6.00;4.10;;;;;;;25.29;56.40;99563.78;5072706;28;20464;-63
2022/08/16 01:33:02;;;;;;;7.47;4.27;;;;;;;25.30;56.43;99558.81;5090618;28;20440;-63
2022/08/16 01:35:28;;;;;;;3.90;3.23;;;;;;;25.29;56.19;99566.66;5090508;28;20412;-63
2022/08/16 01:37:54;;;;;;;5.27;4.27;;;;;;;25.28;56.54;99570.81;5090450;28;20494;-63
2022/08/16 01:40:26;;;;;;;7.03;4.10;;;;;;;25.28;56.23;99570.81;5090613;28;20219;-63
2022/08/16 01:42:51;;;;;;;5.57;4.10;;;;;;;25.29;56.64;99568.75;5089659;28;20816;-63
2022/08/16 01:45:18;;;;;;;6.20;4.17;;;;;;;25.28;56.17;99555.59;5088602;28;20463;-63
2022/08/16 01:47:44;;;;;;;8.37;4.07;;;;;;;25.28;56.53;99556.38;5089085;28;20640;-63
2022/08/16 01:50:10;;;;;;;5.00;3.80;;;;;;;25.28;56.56;99556.38;5087483;28;20947;-63
2022/08/16 01:52:36;;;;;;;4.23;3.40;;;;;;;25.29;56.22;99554.31;5071004;28;20420;-63
2022/08/16 01:55:01;;;;;;;5.50;4.17;;;;;;;25.28;56.29;99556.38;5089711;28;20170;-63
2022/08/16 01:57:27;;;;;;;6.00;3.97;;;;;;;25.28;56.26;99550.59;5088495;28;20966;-63
2022/08/16 01:59:52;;;;;;;9.50;4.77;;;;;;;25.27;56.59;99556.81;5089754;28;20277;-63
2022/08/16 02:02:18;;;;;;;6.27;5.23;;;;;;;25.25;56.84;99554.41;5090274;28;20231;-63
2022/08/16 02:04:43;;;;;;;8.10;4.43;;;;;;;25.24;56.72;99554.81;5090051;28;20261;-63
2022/08/16 02:07:09;;;;;;;7.40;4.30;;;;;;;25.23;56.72;99553.19;5090530;28;20269;-63
2022/08/16 02:09:36;;;;;;;6.33;4.57;;;;;;;25.18;56.54;99554.50;5090367;28;20185;-64
2022/08/16 02:12:03;;;;;;;5.90;4.00;;;;;;;25.20;56.61;99554.88;5089923;28;20235;-64
2022/08/16 02:14:28;;;;;;;6.87;4.33;;;;;;;25.21;56.68;99550.72;5089012;28;20919;-64
2022/08/16 02:17:02;;;;;;;6.60;4.43;;;;;;;25.21;56.69;99547.84;5090371;28;20424;-64
2022/08/16 02:19:28;;;;;;;6.30;3.93;;;;;;;25.24;56.31;99554.81;5089943;28;20162;-64
2022/08/16 02:21:54;;;;;;;6.13;3.90;;;;;;;25.18;56.67;99542.13;5088223;28;20421;-64
2022/08/16 02:24:21;;;;;;;5.63;4.13;;;;;;;25.19;56.76;99535.91;5088244;28;20427;-64
2022/08/16 02:26:46;;;;;;;4.83;3.80;;;;;;;25.16;56.64;99533.09;5088512;28;20178;-64
2022/08/16 02:29:12;;;;;;;7.40;3.93;;;;;;;25.15;56.68;99529.41;5090635;28;20431;-64
2022/08/16 02:31:38;;;;;;;9.20;4.67;;;;;;;25.18;56.63;99540.03;5092521;28;20198;-64
2022/08/16 02:34:04;;;;;;;8.20;4.00;;;;;;;25.18;56.63;99534.28;5089817;28;20178;-64
2022/08/16 02:36:30;;;;;;;7.50;4.00;;;;;;;25.18;57.09;99542.13;5072479;28;20175;-64
2022/08/16 02:38:55;;;;;;;5.20;4.10;;;;;;;25.17;56.89;99538.44;5073455;28;20484;-64
2022/08/16 02:41:21;;;;;;;4.30;3.83;;;;;;;25.16;56.93;99539.69;5072031;28;20193;-64
2022/08/16 02:43:46;;;;;;;9.23;4.50;;;;;;;25.17;56.64;99538.44;5075859;28;20548;-64
2022/08/16 02:46:11;;;;;;;6.10;4.00;;;;;;;25.16;56.74;99533.91;5082907;28;20683;-64
2022/08/16 02:48:37;;;;;;;5.80;3.90;;;;;;;25.17;56.46;99532.66;5093337;28;20170;-64
2022/08/16 02:51:03;;;;;;;7.43;4.23;;;;;;;25.17;56.49;99526.88;5093402;28;20282;-64
2022/08/16 02:53:29;;;;;;;5.43;4.20;;;;;;;25.19;56.55;99523.53;5093480;28;20178;-64
2022/08/16 02:55:54;;;;;;;7.23;3.87;;;;;;;25.19;56.67;99520.66;5093298;28;20228;-64
2022/08/16 02:58:22;;;;;;;5.53;3.60;;;;;;;25.21;56.61;99523.91;5093294;28;20657;-64
2022/08/16 03:00:47;;;;;;;5.77;4.20;;;;;;;25.21;56.32;99518.13;5088581;28;20250;-64
2022/08/16 03:03:12;;;;;;;9.53;4.30;;;;;;;25.19;56.61;99517.75;5089794;28;20428;-64
2022/08/16 03:05:38;;;;;;;5.40;3.97;;;;;;;25.18;56.56;99516.94;5092026;28;20175;-64
2022/08/16 03:08:03;;;;;;;6.17;4.20;;;;;;;25.19;57.07;99518.56;5092678;28;20170;-64
2022/08/16 03:10:29;;;;;;;9.47;4.60;;;;;;;25.19;56.47;99518.56;5093250;28;20202;-64
2022/08/16 03:12:55;;;;;;;7.23;4.00;;;;;;;25.19;56.61;99520.66;5092871;28;20284;-64
2022/08/16 03:15:20;;;;;;;5.40;4.77;;;;;;;25.18;56.71;99519.03;5092735;28;20174;-64
2022/08/16 03:17:46;;;;;;;5.90;4.00;;;;;;;25.18;56.72;99513.25;5092309;28;20424;-64
2022/08/16 03:20:13;;;;;;;10.73;4.17;;;;;;;25.17;56.88;99515.31;5092768;28;20167;-64
2022/08/16 03:22:39;;;;;;;7.57;4.17;;;;;;;25.18;56.75;99513.25;5091506;28;20182;-64
2022/08/16 03:25:06;;;;;;;7.30;4.10;;;;;;;25.17;56.13;99511.59;5092977;28;20421;-64
2022/08/16 03:27:33;;;;;;;6.30;4.00;;;;;;;25.16;56.62;99518.63;5093015;28;20300;-64
2022/08/16 03:30:05;;;;;;;5.97;3.80;;;;;;;25.17;56.36;99512.41;5092489;28;20409;-64
2022/08/16 03:32:30;;;;;;;11.13;4.43;;;;;;;25.16;56.78;99512.84;5092454;28;20424;-64
2022/08/16 03:34:56;;;;;;;6.73;4.03;;;;;;;25.15;56.62;99512.06;5092434;28;20428;-64
2022/08/16 03:37:21;;;;;;;4.50;3.87;;;;;;;25.12;56.75;99507.16;5092466;28;20170;-64
2022/08/16 03:39:47;;;;;;;6.27;4.23;;;;;;;25.14;56.73;99509.63;5092219;28;20186;-64
2022/08/16 03:42:12;;;;;;;6.40;4.50;;;;;;;25.14;56.45;99509.63;5092521;28;20167;-64
2022/08/16 03:44:38;;;;;;;5.00;4.50;;;;;;;25.14;56.51;99506.72;5092468;28;20185;-64
2022/08/16 03:47:03;;;;;;;6.40;4.23;;;;;;;25.14;56.54;99507.53;5091998;28;20178;-64
2022/08/16 03:49:29;;;;;;;5.70;3.90;;;;;;;25.14;56.54;99507.53;5092249;28;20173;-63
2022/08/16 03:51:55;;;;;;;5.63;4.53;;;;;;;25.15;56.89;99499.69;5092356;28;20206;-63
2022/08/16 03:54:20;;;;;;;6.50;4.10;;;;;;;25.14;56.28;99504.63;5092256;28;20832;-63
2022/08/16 03:56:45;;;;;;;5.57;4.40;;;;;;;25.14;56.31;99507.53;5092053;28;20560;-63
2022/08/16 03:59:12;;;;;;;4.90;3.80;;;;;;;25.14;56.34;99506.72;5092128;28;20530;-63
2022/08/16 04:01:38;;;;;;;9.87;4.43;;;;;;;25.15;56.37;99512.06;5091930;28;20224;-63
2022/08/16 04:04:03;;;;;;;6.20;3.87;;;;;;;25.15;56.84;99512.06;5087872;28;20480;-63
2022/08/16 04:06:29;;;;;;;6.17;4.10;;;;;;;25.14;56.38;99515.41;5071595;28;20179;-63
2022/08/16 04:08:54;;;;;;;5.40;4.30;;;;;;;25.14;56.71;99515.41;5070324;28;20175;-63
2022/08/16 04:11:19;;;;;;;9.07;4.87;;;;;;;25.14;56.39;99512.50;5071257;28;20223;-63
2022/08/16 04:13:46;;;;;;;6.10;4.20;;;;;;;25.13;56.56;99520.34;5071692;28;20182;-63
2022/08/16 04:16:12;;;;;;;7.00;3.90;;;;;;;25.11;56.68;99522.88;5071261;28;20266;-63
2022/08/16 04:18:37;;;;;;;5.13;4.40;;;;;;;25.14;56.52;99521.16;5070277;28;20417;-63
2022/08/16 04:21:04;;;;;;;6.80;4.07;;;;;;;25.11;56.39;99522.03;5071591;28;20258;-63
2022/08/16 04:23:29;;;;;;;6.90;4.33;;;;;;;25.12;56.25;99517.91;5071478;28;20167;-63
2022/08/16 04:25:55;;;;;;;6.63;4.20;;;;;;;25.10;56.52;99518.34;5071250;28;20784;-63
2022/08/16 04:28:20;;;;;;;8.13;4.83;;;;;;;25.10;56.71;99526.19;5071738;28;20622;-63
2022/08/16 04:30:46;;;;;;;6.97;4.10;;;;;;;25.11;56.35;99524.94;5071018;28;20213;-63
2022/08/16 04:33:11;;;;;;;5.60;4.07;;;;;;;25.10;56.36;99520.44;5088252;28;20290;-63
2022/08/16 04:35:36;;;;;;;6.67;4.27;;;;;;;25.09;56.39;99522.47;5091348;28;20198;-63
2022/08/16 04:38:03;;;;;;;6.40;4.30;;;;;;;25.10;56.20;99520.44;5091453;28;20193;-63
2022/08/16 04:40:29;;;;;;;4.63;4.00;;;;;;;25.10;56.41;99531.97;5087719;28;20223;-63
2022/08/16 04:42:54;;;;;;;7.77;4.57;;;;;;;25.11;56.15;99534.44;5071436;28;20418;-64
2022/08/16 04:45:20;;;;;;;5.03;3.67;;;;;;;25.11;56.44;99531.53;5075240;28;20183;-64
2022/08/16 04:47:46;;;;;;;7.23;4.03;;;;;;;25.10;56.36;99529.91;5091326;28;20185;-64
2022/08/16 04:50:15;;;;;;;8.13;4.30;;;;;;;25.11;56.24;99539.38;5091504;28;20691;-64
2022/08/16 04:52:41;;;;;;;7.37;4.37;;;;;;;25.11;56.07;99534.44;5089310;28;20163;-64
2022/08/16 04:55:12;;;;;;;6.20;4.30;;;;;;;25.11;56.14;99543.09;5089688;28;20852;-64
2022/08/16 04:57:37;;;;;;;5.50;3.90;;;;;;;25.10;55.87;99538.59;5090707;28;20397;-64
2022/08/16 05:00:06;;;;;;;7.23;4.13;;;;;;;25.10;56.43;99541.47;5090485;28;20461;-64
2022/08/16 05:02:32;;;;;;;6.73;3.97;;;;;;;25.10;55.84;99547.25;5090258;28;20188;-64
2022/08/16 05:04:58;;;;;;;9.23;4.00;;;;;;;25.10;55.96;99553.03;5090238;28;20418;-64
2022/08/16 05:07:23;;;;;;;5.87;4.30;;;;;;;25.08;56.25;99558.41;5090223;28;20775;-64
2022/08/16 05:09:51;;;;;;;5.80;3.80;;;;;;;25.08;56.01;99549.75;5087060;28;20185;-64
2022/08/16 05:12:16;;;;;;;10.30;4.43;;;;;;;25.09;56.21;99556.34;5089231;28;20226;-64
2022/08/16 05:14:41;;;;;;;5.10;4.20;;;;;;;25.06;56.40;99546.50;5090786;28;20424;-64
2022/08/16 05:17:07;;;;;;;8.87;4.50;;;;;;;25.05;56.16;99556.44;5090749;28;20166;-64
2022/08/16 05:19:32;;;;;;;8.73;4.47;;;;;;;25.07;56.19;99562.56;5090914;28;20577;-64
2022/08/16 05:21:58;;;;;;;5.03;3.70;;;;;;;25.07;56.14;99558.84;5090377;28;20177;-64
2022/08/16 05:24:23;;;;;;;5.97;4.40;;;;;;;25.07;56.22;99565.47;5090522;28;20174;-64
2022/08/16 05:26:49;;;;;;;6.33;4.30;;;;;;;25.08;56.09;99563.41;5090417;28;20637;-64
2022/08/16 05:29:14;;;;;;;5.67;3.80;;;;;;;25.10;56.02;99557.97;5090874;28;20170;-64
2022/08/16 05:31:39;;;;;;;6.00;4.43;;;;;;;25.10;56.02;99569.53;5090343;28;20206;-64
2022/08/16 05:34:05;;;;;;;8.03;4.00;;;;;;;25.07;56.50;99571.22;5090648;28;20223;-64
2022/08/16 05:36:31;;;;;;;8.77;4.47;;;;;;;25.07;56.40;99574.13;5090569;28;20178;-64
2022/08/16 05:38:56;;;;;;;5.13;4.00;;;;;;;25.06;56.26;99569.59;5090072;28;20182;-64
2022/08/16 05:41:22;;;;;;;7.63;3.87;;;;;;;25.06;56.17;99578.28;5088463;28;20419;-64
2022/08/16 05:43:47;;;;;;;5.77;4.20;;;;;;;25.05;56.68;99567.97;5088710;28;20198;-64
2022/08/16 05:46:16;;;;;;;6.53;4.40;;;;;;;25.06;56.35;99584.06;5088681;28;20178;-64
2022/08/16 05:48:43;;;;;;;6.17;4.23;;;;;;;25.04;56.75;99582.88;5088920;28;20170;-64
2022/08/16 05:51:08;;;;;;;6.30;4.50;;;;;;;25.05;56.33;99581.59;5088631;28;20444;-64
2022/08/16 05:53:34;;;;;;;5.17;3.70;;;;;;;25.05;56.40;99588.22;5088626;28;20481;-64
2022/08/16 05:55:59;;;;;;;4.67;3.80;;;;;;;25.05;56.43;99593.16;5085963;28;20514;-64
2022/08/16 05:58:25;;;;;;;8.40;4.97;;;;;;;24.94;57.12;99599.13;5070140;28;20171;-64
2022/08/16 06:00:50;;;;;;;5.20;4.07;;;;;;;25.01;56.71;99595.28;5070439;28;20168;-64
2022/08/16 06:03:16;;;;;;;5.73;3.77;;;;;;;24.94;57.11;99598.34;5075625;28;20190;-64
2022/08/16 06:05:41;;;;;;;6.77;4.10;;;;;;;24.93;57.11;99583.06;5074349;28;20206;-64
2022/08/16 06:08:06;;;;;;;7.00;4.37;;;;;;;24.91;57.45;99594.25;5074055;28;20653;-64
2022/08/16 06:10:32;;;;;;;8.87;4.90;;;;;;;24.89;57.54;99590.97;5073386;28;20277;-64
2022/08/16 06:12:57;;;;;;;6.70;3.83;;;;;;;24.97;57.25;99598.25;5073801;28;20183;-63
2022/08/16 06:15:23;;;;;;;5.90;4.23;;;;;;;24.94;57.50;99592.56;5073802;28;20175;-63
2022/08/16 06:17:48;;;;;;;12.50;4.20;;;;;;;24.97;57.22;99597.44;5087020;28;20644;-63
2022/08/16 06:20:22;;;;;;;8.07;4.20;;;;;;;24.90;57.19;99598.41;5093730;28;20171;-63
2022/08/16 06:22:49;;;;;;;6.37;4.10;;;;;;;24.96;57.59;99598.69;5094375;28;20174;-63
2022/08/16 06:25:14;;;;;;;6.80;4.00;;;;;;;24.95;57.41;99594.19;5093802;28;20417;-63
2022/08/16 06:27:40;;;;;;;9.03;4.90;;;;;;;24.88;57.44;99595.13;5093868;28;20454;-63
2022/08/16 06:30:07;;;;;;;8.27;4.13;;;;;;;24.89;57.71;99605.41;5093716;28;20170;-63
2022/08/16 06:32:32;;;;;;;8.83;4.57;;;;;;;24.88;57.93;99600.09;5093549;28;20280;-63
2022/08/16 06:34:58;;;;;;;7.83;4.80;;;;;;;24.94;57.62;99599.13;5093846;28;20851;-63
2022/08/16 06:37:23;;;;;;;10.03;4.10;;;;;;;24.95;57.69;99599.97;5090379;28;20179;-63
2022/08/16 06:39:49;;;;;;;8.57;4.53;;;;;;;25.00;57.14;99602.34;5092373;28;20178;-63
2022/08/16 06:42:14;;;;;;;7.10;4.23;;;;;;;24.98;57.11;99602.78;5093336;28;20264;-63
2022/08/16 06:44:40;;;;;;;6.17;4.90;;;;;;;24.90;57.45;99609.13;5092963;28;20167;-64
2022/08/16 06:47:05;;;;;;;7.83;4.57;;;;;;;24.91;57.39;99600.03;5093390;28;20427;-64
2022/08/16 06:49:31;;;;;;;6.57;4.00;;;;;;;24.99;57.78;99609.38;5092073;28;20243;-64
2022/08/16 06:51:57;;;;;;;8.63;4.53;;;;;;;24.98;57.27;99594.09;5073628;28;20261;-64
2022/08/16 06:54:22;;;;;;;7.20;4.37;;;;;;;24.95;57.64;99597.91;5071985;28;20649;-64
2022/08/16 06:56:47;;;;;;;6.97;4.50;;;;;;;24.99;57.28;99607.28;5072412;28;20638;-63
2022/08/16 06:59:13;;;;;;;7.73;5.03;;;;;;;24.46;60.62;99607.41;5072178;28;20171;-63
2022/08/16 07:01:38;;;;;;;8.40;5.77;;;;;;;24.43;61.70;99595.94;5080131;28;20227;-63
2022/08/16 07:04:04;;;;;;;13.27;6.50;;;;;;;24.74;62.94;99598.25;5088699;28;20174;-63
2022/08/16 07:06:30;;;;;;;10.10;7.23;;;;;;;25.30;62.32;99602.19;5092468;28;20646;-63
2022/08/16 07:08:57;;;;;;;12.60;6.97;;;;;;;25.00;62.26;99602.34;5092624;28;20179;-63
2022/08/16 07:11:24;;;;;;;12.13;5.90;;;;;;;24.65;63.22;99615.38;5091909;28;20530;-63
2022/08/16 07:13:49;;;;;;;7.53;5.10;;;;;;;24.51;62.40;99606.09;5091193;28;20495;-63
2022/08/16 07:16:15;;;;;;;11.70;5.83;;;;;;;24.39;63.17;99604.63;5090618;28;20791;-63
2022/08/16 07:18:43;;;;;;;9.60;4.60;;;;;;;24.49;61.82;99618.06;5090303;28;20174;-63
2022/08/16 07:21:10;;;;;;;8.27;4.97;;;;;;;24.77;61.67;99611.84;5090727;28;20178;-63
2022/08/16 07:23:36;;;;;;;7.30;4.90;;;;;;;24.61;61.59;99608.81;5089787;28;20424;-63
2022/08/16 07:26:02;;;;;;;7.33;5.50;;;;;;;24.77;62.23;99606.06;5092634;28;20424;-64
2022/08/16 07:28:28;;;;;;;7.43;5.23;;;;;;;24.71;61.65;99607.81;5090756;28;20189;-64
2022/08/16 07:30:53;;;;;;;10.27;5.10;;;;;;;24.91;60.91;99605.81;5089326;28;20963;-63
2022/08/16 07:33:19;;;;;;;13.97;6.13;;;;;;;25.16;60.57;99594.59;5092138;28;20236;-63
2022/08/16 07:35:44;;;;;;;8.10;6.40;;;;;;;25.25;61.05;99603.53;5092477;28;20219;-63
2022/08/16 07:38:10;;;;;;;10.90;4.80;;;;;;;25.21;60.60;99607.69;5087150;28;20186;-63
2022/08/16 07:40:36;;;;;;;7.50;5.07;;;;;;;25.16;59.92;99614.81;5089780;28;20542;-63
2022/08/16 07:43:01;;;;;;;8.93;5.47;;;;;;;24.59;60.65;99619.19;5090152;28;20595;-63
2022/08/16 07:45:27;;;;;;;9.70;4.47;;;;;;;24.51;60.95;99629.16;5084823;28;20428;-63
2022/08/16 07:47:52;;;;;;;7.93;5.60;;;;;;;24.60;60.63;99621.63;5086336;28;20620;-63
2022/08/16 07:50:18;;;;;;;7.83;5.30;;;;;;;24.49;60.50;99623.03;5087317;28;20267;-63
2022/08/16 07:52:44;;;;;;;11.30;4.57;;;;;;;24.67;60.57;99624.38;5086797;28;20178;-63
2022/08/16 07:55:12;;;;;;;11.67;4.63;;;;;;;24.97;60.16;99624.25;5080294;28;20210;-63
2022/08/16 07:57:38;;;;;;;7.97;5.17;;;;;;;24.87;60.26;99619.50;5082848;28;20439;-63
2022/08/16 08:00:04;;;;;;;10.10;5.10;;;;;;;24.70;60.49;99616.91;5089898;28;20425;-63
2022/08/16 08:02:29;;;;;;;5.87;4.60;;;;;;;24.57;60.89;99619.59;5090082;28;20179;-63
2022/08/16 08:04:55;;;;;;;9.93;5.97;;;;;;;24.45;61.12;99617.31;5090752;28;20433;-63
2022/08/16 08:07:21;;;;;;;9.33;5.23;;;;;;;24.38;61.47;99628.16;5086481;28;20206;-63
2022/08/16 08:09:46;;;;;;;11.93;5.57;;;;;;;24.67;61.07;99621.50;5078305;28;20240;-63
2022/08/16 08:12:12;;;;;;;12.43;5.30;;;;;;;24.73;60.33;99625.50;5069029;28;20239;-63
2022/08/16 08:14:37;;;;;;;10.33;4.80;;;;;;;24.92;60.02;99618.97;5069229;28;20171;-63
2022/08/16 08:17:06;;;;;;;7.70;4.40;;;;;;;25.02;59.88;99617.97;5070718;28;20178;-63
2022/08/16 08:19:34;;;;;;;13.20;5.60;;;;;;;25.05;59.40;99624.94;5071073;28;20166;-63
2022/08/16 08:22:00;;;;;;;9.57;4.60;;;;;;;25.05;59.10;99622.88;5070950;28;20894;-63
2022/08/16 08:24:26;;;;;;;8.90;4.73;;;;;;;25.11;58.81;99626.88;5069264;28;20453;-63
2022/08/16 08:26:53;;;;;;;8.60;5.30;;;;;;;25.05;59.07;99628.66;5067677;28;20526;-63
2022/08/16 08:29:18;;;;;;;9.00;5.73;;;;;;;25.05;59.18;99617.09;5069527;28;20425;-63
2022/08/16 08:31:44;;;;;;;7.43;4.40;;;;;;;25.11;58.89;99626.03;5074522;28;20468;-63
2022/08/16 08:34:09;;;;;;;7.60;4.90;;;;;;;25.11;59.00;99626.03;5086709;28;20239;-63
2022/08/16 08:36:35;;;;;;;10.37;4.90;;;;;;;25.13;58.98;99630.13;5090026;28;20170;-63
2022/08/16 08:39:02;;;;;;;6.80;5.40;;;;;;;25.14;58.97;99625.97;5089566;28;20190;-63
2022/08/16 08:41:28;;;;;;;9.10;5.40;;;;;;;25.03;59.03;99630.34;5090732;28;20232;-63
2022/08/16 08:43:54;;;;;;;10.10;5.50;;;;;;;25.11;58.54;99629.75;5082547;28;20421;-63
2022/08/16 08:46:20;;;;;;;7.57;4.50;;;;;;;25.15;58.63;99632.56;5081294;28;20699;-63
2022/08/16 08:48:45;;;;;;;8.23;4.70;;;;;;;25.17;58.23;99630.06;5089595;28;20416;-63
2022/08/16 08:51:11;;;;;;;9.47;6.03;;;;;;;25.10;58.14;99631.03;5089743;28;20198;-63
2022/08/16 08:53:36;;;;;;;8.77;5.73;;;;;;;25.17;58.03;99636.66;5089930;28;20622;-63
2022/08/16 08:56:02;;;;;;;11.00;5.00;;;;;;;25.18;57.94;99638.28;5088354;28;20177;-63
2022/08/16 08:58:28;;;;;;;6.27;5.20;;;;;;;25.16;58.31;99640.81;5089846;28;20174;-63
2022/08/16 09:00:55;;;;;;;7.67;4.83;;;;;;;25.17;57.94;99639.53;5089908;28;20231;-63
2022/08/16 09:03:20;;;;;;;11.87;5.60;;;;;;;25.18;57.97;99637.47;5090838;28;20190;-63
2022/08/16 09:05:46;;;;;;;7.90;5.00;;;;;;;25.22;57.44;99633.25;5087687;28;20863;-63
2022/08/16 09:08:11;;;;;;;8.60;5.50;;;;;;;25.23;57.26;99637.78;5090584;28;20170;-63
2022/08/16 09:10:37;;;;;;;7.47;5.83;;;;;;;25.17;56.95;99635.81;5090494;28;20210;-63
2022/08/16 09:13:04;;;;;;;9.27;6.10;;;;;;;25.14;56.91;99640.41;5090796;28;20182;-63
2022/08/16 09:15:29;;;;;;;8.50;6.17;;;;;;;24.92;57.04;99644.16;5091051;28;20304;-63
2022/08/16 09:17:55;;;;;;;9.10;5.40;;;;;;;25.10;57.70;99648.38;5090878;28;20782;-63
2022/08/16 09:20:24;;;;;;;7.10;5.77;;;;;;;25.19;57.24;99647.78;5090631;28;20179;-63
2022/08/16 09:22:49;;;;;;;7.87;5.97;;;;;;;25.23;57.24;99649.34;5088845;28;20919;-63
2022/08/16 09:25:15;;;;;;;10.10;6.20;;;;;;;25.16;56.44;99649.47;5088676;28;20450;-63
2022/08/16 09:27:40;;;;;;;8.27;6.20;;;;;;;25.18;56.61;99649.84;5088857;28;20177;-63
2022/08/16 09:30:07;;;;;;;11.60;6.50;;;;;;;25.24;56.58;99648.06;5089954;28;20646;-63
2022/08/16 09:32:32;;;;;;;7.90;5.43;;;;;;;25.26;56.67;99645.59;5085417;28;20653;-63
2022/08/16 09:34:58;;;;;;;8.63;5.53;;;;;;;25.28;56.27;99643.06;5089685;28;20485;-63
2022/08/16 09:37:25;;;;;;;9.87;6.03;;;;;;;25.27;56.42;99641.44;5082630;28;20190;-63
2022/08/16 09:39:50;;;;;;;11.00;6.03;;;;;;;25.31;56.51;99653.75;5073184;28;20248;-63
2022/08/16 09:42:17;;;;;;;8.83;6.80;;;;;;;25.32;55.92;99652.50;5073399;28;20410;-63
2022/08/16 09:44:43;;;;;;;9.43;6.13;;;;;;;25.32;55.61;99649.59;5072990;28;20194;-63
2022/08/16 09:47:08;;;;;;;11.67;6.43;;;;;;;25.33;56.06;99653.31;5090736;28;20412;-63
2022/08/16 09:49:34;;;;;;;10.50;5.80;;;;;;;25.34;55.61;99644.19;5074909;28;20241;-63
2022/08/16 09:51:59;;;;;;;10.27;7.07;;;;;;;25.35;55.73;99645.84;5072945;28;20290;-63
2022/08/16 09:54:26;;;;;;;10.87;5.90;;;;;;;25.37;55.45;99649.09;5072825;28;20692;-63
2022/08/16 09:56:51;;;;;;;14.50;6.00;;;;;;;25.33;55.36;99647.53;5074124;28;20171;-63
2022/08/16 09:59:17;;;;;;;8.50;5.80;;;;;;;25.31;55.28;99647.97;5074174;28;20907;-63
2022/08/16 10:01:43;;;;;;;17.80;6.33;;;;;;;25.27;55.31;99634.84;5078951;28;20230;-63
2022/08/16 10:04:09;;;;;;;15.77;5.70;;;;;;;25.18;55.18;99649.84;5083067;28;20248;-64
2022/08/16 10:06:35;;;;;;;10.83;7.00;;;;;;;25.09;55.15;99646.72;5074147;28;20506;-64
2022/08/16 10:09:02;;;;;;;12.07;6.50;;;;;;;25.22;55.20;99644.81;5074272;28;20433;-64
2022/08/16 10:14:12;;;;;;;10.80;6.07;;;;;;;25.32;55.38;99637.22;5073856;28;20475;-64
2022/08/16 10:16:38;;;;;;;7.83;5.80;;;;;;;25.33;55.41;99642.56;5073961;28;20417;-64
2022/08/16 10:19:03;;;;;;;9.87;6.83;;;;;;;25.34;55.26;99644.19;5073877;28;20587;-64
2022/08/16 10:21:29;;;;;;;7.53;5.60;;;;;;;25.35;55.33;99642.13;5072385;28;20167;-64
2022/08/16 10:23:54;;;;;;;11.60;5.90;;;;;;;25.26;55.11;99639.81;5074935;28;20177;-64
2022/08/16 10:26:23;;;;;;;11.80;6.10;;;;;;;25.25;54.89;99641.09;5072312;28;20183;-64
2022/08/16 10:28:49;;;;;;;7.90;6.53;;;;;;;25.29;54.95;99641.81;5073831;28;20211;-64
2022/08/16 10:31:14;;;;;;;10.50;6.27;;;;;;;25.34;54.90;99635.50;5072786;28;20964;-64
2022/08/16 10:33:40;;;;;;;7.90;5.57;;;;;;;25.38;54.92;99639.16;5094244;28;20431;-64
2022/08/16 10:36:08;;;;;;;9.87;6.10;;;;;;;25.44;54.45;99640.25;5081304;28;20190;-64
2022/08/16 10:38:36;;;;;;;7.70;5.50;;;;;;;25.46;54.35;99642.72;5077190;28;20596;-64
2022/08/16 10:41:02;;;;;;;8.63;5.10;;;;;;;25.45;53.73;99641.91;5072794;28;20844;-64
2022/08/16 10:43:28;;;;;;;10.80;5.50;;;;;;;25.49;54.02;99647.63;5071394;28;20561;-64
2022/08/16 10:45:53;;;;;;;8.90;5.50;;;;;;;25.51;53.20;99645.91;5076140;28;20573;-64
2022/08/16 10:48:19;;;;;;;8.73;5.53;;;;;;;25.48;52.54;99643.91;5074340;28;20182;-64
2022/08/16 10:50:44;;;;;;;7.07;5.57;;;;;;;25.46;52.90;99643.53;5069811;28;20689;-64
2022/08/16 10:53:10;;;;;;;7.67;5.40;;;;;;;25.49;53.19;99636.84;5071651;28;20538;-64
2022/08/16 10:55:36;;;;;;;10.50;5.27;;;;;;;25.55;53.28;99643.78;5069427;28;20183;-64
2022/08/16 10:58:06;;;;;;;9.63;6.17;;;;;;;25.60;53.35;99642.44;5083737;28;20191;-64
2022/08/16 11:00:32;;;;;;;7.83;5.37;;;;;;;25.59;53.09;99649.47;5071984;28;20417;-64
2022/08/16 11:02:58;;;;;;;7.03;5.40;;;;;;;25.59;52.80;99649.47;5080061;28;20461;-64
2022/08/16 11:05:24;;;;;;;9.97;5.87;;;;;;;25.59;52.43;99640.81;5083919;28;20280;-64
2022/08/16 11:07:49;;;;;;;6.60;5.20;;;;;;;25.58;51.89;99639.97;5072978;28;20433;-64
2022/08/16 11:10:16;;;;;;;9.03;5.47;;;;;;;25.55;51.65;99643.78;5071322;28;20236;-64
2022/08/16 11:12:42;;;;;;;7.13;5.40;;;;;;;25.53;52.72;99636.81;5073225;28;20317;-64
2022/08/16 11:15:08;;;;;;;6.70;5.53;;;;;;;25.57;52.66;99625.97;5073517;28;20429;-64
2022/08/16 11:17:33;;;;;;;6.50;5.40;;;;;;;25.60;52.51;99628.81;5073531;28;20582;-64
2022/08/16 11:19:59;;;;;;;8.93;4.77;;;;;;;25.62;52.01;99626.25;5073442;28;20187;-64
2022/08/16 11:22:25;;;;;;;6.87;5.00;;;;;;;25.65;52.01;99628.25;5073265;28;20262;-64
2022/08/16 11:24:51;;;;;;;7.60;5.20;;;;;;;25.63;52.22;99622.09;5085344;28;20420;-64
2022/08/16 11:27:18;;;;;;;7.33;5.23;;;;;;;25.66;51.89;99624.13;5092706;28;20188;-64